sensor_id;sensor_type;location;lat;lon;timestamp;pressure;altitude;pressure_sealevel;temperature;humidity
39301;BME280;25019;42.626;23.380;2023-05-03T00:00:04;94738.13;;;11.63;48.71
39301;BME280;25019;42.626;23.380;2023-05-03T00:02:35;94789.50;;;11.86;47.95
39301;BME280;25019;42.626;23.380;2023-05-03T00:05:07;94726.41;;;11.42;48.12
39301;BME280;25019;42.626;23.380;2023-05-03T00:07:37;94791.72;;;11.72;48.47
39301;BME280;25019;42.626;23.380;2023-05-03T00:10:05;94788.69;;;11.63;48.62
39301;BME280;25019;42.626;23.380;2023-05-03T00:12:31;94710.16;;;11.21;48.90
39301;BME280;25019;42.626;23.380;2023-05-03T00:14:56;94767.31;;;11.58;48.67
39301;BME280;25019;42.626;23.380;2023-05-03T00:17:22;94780.34;;;11.59;48.73
39301;BME280;25019;42.626;23.380;2023-05-03T00:19:47;94774.34;;;11.47;48.82
39301;BME280;25019;42.626;23.380;2023-05-03T00:22:13;94797.63;;;11.57;48.83
39301;BME280;25019;42.626;23.380;2023-05-03T00:24:39;94785.97;;;11.41;49.08
39301;BME280;25019;42.626;23.380;2023-05-03T00:27:05;94781.47;;;11.41;49.58
39301;BME280;25019;42.626;23.380;2023-05-03T00:29:31;94747.56;;;11.14;49.77
39301;BME280;25019;42.626;23.380;2023-05-03T00:31:57;94774.19;;;11.36;49.58
39301;BME280;25019;42.626;23.380;2023-05-03T00:34:24;94791.28;;;11.41;49.35
39301;BME280;25019;42.626;23.380;2023-05-03T00:36:50;94792.25;;;11.34;49.29
39301;BME280;25019;42.626;23.380;2023-05-03T00:39:16;94728.16;;;10.97;48.98
39301;BME280;25019;42.626;23.380;2023-05-03T00:41:42;94796.13;;;11.44;48.46
39301;BME280;25019;42.626;23.380;2023-05-03T00:44:07;94786.84;;;11.29;48.81
39301;BME280;25019;42.626;23.380;2023-05-03T00:46:33;94720.50;;;10.83;48.54
39301;BME280;25019;42.626;23.380;2023-05-03T00:48:59;94727.50;;;10.89;48.89
39301;BME280;25019;42.626;23.380;2023-05-03T00:51:26;94790.56;;;11.28;48.99
39301;BME280;25019;42.626;23.380;2023-05-03T00:53:52;94794.34;;;11.32;49.06
39301;BME280;25019;42.626;23.380;2023-05-03T00:56:18;94794.59;;;11.31;49.13
39301;BME280;25019;42.626;23.380;2023-05-03T00:58:50;94740.06;;;10.94;48.69
39301;BME280;25019;42.626;23.380;2023-05-03T01:01:15;94692.97;;;10.55;49.04
39301;BME280;25019;42.626;23.380;2023-05-03T01:03:42;94759.63;;;11.05;49.03
39301;BME280;25019;42.626;23.380;2023-05-03T01:09:10;94771.25;;;11.16;49.11
39301;BME280;25019;42.626;23.380;2023-05-03T01:14:45;94774.19;;;11.02;49.32
39301;BME280;25019;42.626;23.380;2023-05-03T01:17:13;94705.44;;;10.55;49.73
39301;BME280;25019;42.626;23.380;2023-05-03T01:19:49;94704.66;;;10.54;49.95
39301;BME280;25019;42.626;23.380;2023-05-03T01:22:22;94722.25;;;10.60;50.87
39301;BME280;25019;42.626;23.380;2023-05-03T01:25:00;94748.69;;;10.67;50.47
39301;BME280;25019;42.626;23.380;2023-05-03T01:27:29;94725.06;;;10.54;50.50
39301;BME280;25019;42.626;23.380;2023-05-03T01:29:55;94684.03;;;10.32;50.58
39301;BME280;25019;42.626;23.380;2023-05-03T01:32:28;94680.69;;;10.37;50.57
39301;BME280;25019;42.626;23.380;2023-05-03T01:35:25;94735.72;;;10.71;50.96
39301;BME280;25019;42.626;23.380;2023-05-03T01:37:54;94676.44;;;10.36;50.75
39301;BME280;25019;42.626;23.380;2023-05-03T01:40:22;94734.50;;;10.78;50.70
39301;BME280;25019;42.626;23.380;2023-05-03T01:42:49;94636.19;;;10.10;51.12
39301;BME280;25019;42.626;23.380;2023-05-03T01:45:16;94722.69;;;10.69;51.36
39301;BME280;25019;42.626;23.380;2023-05-03T01:47:42;94708.66;;;10.57;50.63
39301;BME280;25019;42.626;23.380;2023-05-03T01:50:08;94719.84;;;10.59;51.04
39301;BME280;25019;42.626;23.380;2023-05-03T01:52:34;94669.41;;;10.30;50.74
39301;BME280;25019;42.626;23.380;2023-05-03T01:55:00;94652.19;;;10.15;51.28
39301;BME280;25019;42.626;23.380;2023-05-03T01:57:26;94715.34;;;10.59;50.76
39301;BME280;25019;42.626;23.380;2023-05-03T01:59:52;94662.56;;;10.17;51.09
39301;BME280;25019;42.626;23.380;2023-05-03T02:02:18;94632.59;;;10.04;51.17
39301;BME280;25019;42.626;23.380;2023-05-03T02:04:44;94698.84;;;10.40;51.54
39301;BME280;25019;42.626;23.380;2023-05-03T02:07:11;94645.19;;;10.09;51.21
39301;BME280;25019;42.626;23.380;2023-05-03T02:09:37;94659.13;;;10.16;51.59
39301;BME280;25019;42.626;23.380;2023-05-03T02:12:03;94644.03;;;10.05;51.97
39301;BME280;25019;42.626;23.380;2023-05-03T02:14:28;94661.19;;;10.14;52.13
39301;BME280;25019;42.626;23.380;2023-05-03T02:16:54;94646.94;;;10.03;52.08
39301;BME280;25019;42.626;23.380;2023-05-03T02:19:20;94647.75;;;10.04;52.07
39301;BME280;25019;42.626;23.380;2023-05-03T02:21:46;94652.47;;;10.02;51.99
39301;BME280;25019;42.626;23.380;2023-05-03T02:24:11;94641.91;;;9.90;52.29
39301;BME280;25019;42.626;23.380;2023-05-03T02:26:37;94662.09;;;9.91;52.64
39301;BME280;25019;42.626;23.380;2023-05-03T02:29:03;94601.63;;;9.47;52.84
39301;BME280;25019;42.626;23.380;2023-05-03T02:31:31;94639.47;;;9.71;53.13
39301;BME280;25019;42.626;23.380;2023-05-03T02:33:57;94646.50;;;9.66;53.40
39301;BME280;25019;42.626;23.380;2023-05-03T02:36:22;94706.44;;;10.08;53.58
39301;BME280;25019;42.626;23.380;2023-05-03T02:38:48;94657.88;;;9.78;53.46
39301;BME280;25019;42.626;23.380;2023-05-03T02:41:14;94690.66;;;10.01;53.69
39301;BME280;25019;42.626;23.380;2023-05-03T02:43:39;94709.75;;;10.15;53.17
39301;BME280;25019;42.626;23.380;2023-05-03T02:46:05;94707.38;;;10.13;53.24
39301;BME280;25019;42.626;23.380;2023-05-03T02:48:31;94647.84;;;9.80;53.32
39301;BME280;25019;42.626;23.380;2023-05-03T02:50:57;94697.06;;;10.17;53.44
39301;BME280;25019;42.626;23.380;2023-05-03T02:53:22;94684.25;;;10.14;53.59
39301;BME280;25019;42.626;23.380;2023-05-03T02:55:49;94646.19;;;9.91;53.43
39301;BME280;25019;42.626;23.380;2023-05-03T02:58:15;94638.50;;;9.78;53.88
39301;BME280;25019;42.626;23.380;2023-05-03T03:00:41;94622.38;;;9.79;53.45
39301;BME280;25019;42.626;23.380;2023-05-03T03:03:07;94693.13;;;10.19;53.30
39301;BME280;25019;42.626;23.380;2023-05-03T03:05:33;94695.66;;;10.26;52.98
39301;BME280;25019;42.626;23.380;2023-05-03T03:07:59;94615.56;;;9.83;53.01
39301;BME280;25019;42.626;23.380;2023-05-03T03:10:25;94678.75;;;10.15;53.28
39301;BME280;25019;42.626;23.380;2023-05-03T03:12:51;94634.69;;;9.85;53.39
39301;BME280;25019;42.626;23.380;2023-05-03T03:15:25;94695.69;;;10.14;53.48
39301;BME280;25019;42.626;23.380;2023-05-03T03:17:51;94697.16;;;10.22;53.96
39301;BME280;25019;42.626;23.380;2023-05-03T03:20:21;94683.41;;;10.25;53.70
39301;BME280;25019;42.626;23.380;2023-05-03T03:22:47;94683.41;;;10.25;53.52
39301;BME280;25019;42.626;23.380;2023-05-03T03:25:13;94626.16;;;9.83;53.79
39301;BME280;25019;42.626;23.380;2023-05-03T03:27:38;94595.94;;;9.55;53.62
39301;BME280;25019;42.626;23.380;2023-05-03T03:30:04;94700.59;;;10.23;53.30
39301;BME280;25019;42.626;23.380;2023-05-03T03:32:35;94658.00;;;9.83;53.48
39301;BME280;25019;42.626;23.380;2023-05-03T03:35:03;94661.69;;;9.82;53.14
39301;BME280;25019;42.626;23.380;2023-05-03T03:37:29;94726.56;;;10.20;53.42
39301;BME280;25019;42.626;23.380;2023-05-03T03:39:55;94708.66;;;9.99;53.15
39301;BME280;25019;42.626;23.380;2023-05-03T03:42:21;94687.34;;;9.94;53.34
39301;BME280;25019;42.626;23.380;2023-05-03T03:44:48;94730.63;;;10.23;53.08
39301;BME280;25019;42.626;23.380;2023-05-03T03:47:14;94684.94;;;9.92;52.96
39301;BME280;25019;42.626;23.380;2023-05-03T03:49:40;94675.06;;;9.87;53.30
39301;BME280;25019;42.626;23.380;2023-05-03T03:52:05;94674.22;;;9.87;53.13
39301;BME280;25019;42.626;23.380;2023-05-03T03:54:33;94681.81;;;9.95;52.84
39301;BME280;25019;42.626;23.380;2023-05-03T03:57:01;94723.34;;;10.18;53.01
39301;BME280;25019;42.626;23.380;2023-05-03T03:59:31;94687.50;;;9.87;52.65
39301;BME280;25019;42.626;23.380;2023-05-03T04:01:58;94742.44;;;10.32;52.91
39301;BME280;25019;42.626;23.380;2023-05-03T04:04:23;94741.72;;;10.20;53.25
39301;BME280;25019;42.626;23.380;2023-05-03T04:06:50;94716.41;;;10.00;53.00
39301;BME280;25019;42.626;23.380;2023-05-03T04:09:19;94759.44;;;10.31;53.32
39301;BME280;25019;42.626;23.380;2023-05-03T04:11:46;94756.28;;;10.17;53.81
39301;BME280;25019;42.626;23.380;2023-05-03T04:14:12;94683.41;;;9.67;53.77
39301;BME280;25019;42.626;23.380;2023-05-03T04:16:39;94689.50;;;9.68;53.66
39301;BME280;25019;42.626;23.380;2023-05-03T04:19:05;94711.84;;;9.84;53.85
39301;BME280;25019;42.626;23.380;2023-05-03T04:21:34;94784.03;;;10.27;53.72
39301;BME280;25019;42.626;23.380;2023-05-03T04:23:59;94775.28;;;10.26;54.14
39301;BME280;25019;42.626;23.380;2023-05-03T04:26:31;94723.72;;;9.81;54.58
39301;BME280;25019;42.626;23.380;2023-05-03T04:29:03;94791.31;;;10.31;54.54
39301;BME280;25019;42.626;23.380;2023-05-03T04:31:31;94796.50;;;10.26;54.22
39301;BME280;25019;42.626;23.380;2023-05-03T04:33:57;94800.53;;;10.29;53.99
39301;BME280;25019;42.626;23.380;2023-05-03T04:36:23;94791.31;;;10.31;53.88
39301;BME280;25019;42.626;23.380;2023-05-03T04:38:55;94569.41;;;8.86;53.73
39301;BME280;25019;42.626;23.380;2023-05-03T04:41:22;94750.75;;;10.07;53.39
39301;BME280;25019;42.626;23.380;2023-05-03T04:43:49;94794.16;;;10.42;54.10
39301;BME280;25019;42.626;23.380;2023-05-03T04:46:16;94740.88;;;10.02;54.54
39301;BME280;25019;42.626;23.380;2023-05-03T04:48:44;94813.00;;;10.40;54.55
39301;BME280;25019;42.626;23.380;2023-05-03T04:51:10;94820.25;;;10.45;54.91
39301;BME280;25019;42.626;23.380;2023-05-03T04:53:37;94762.16;;;10.08;55.04
39301;BME280;25019;42.626;23.380;2023-05-03T04:56:08;94805.69;;;10.35;55.15
39301;BME280;25019;42.626;23.380;2023-05-03T04:58:37;94833.06;;;10.36;56.95
39301;BME280;25019;42.626;23.380;2023-05-03T05:01:04;94834.19;;;10.11;59.32
39301;BME280;25019;42.626;23.380;2023-05-03T05:03:30;94836.63;;;9.89;60.73
39301;BME280;25019;42.626;23.380;2023-05-03T05:05:59;94769.34;;;9.42;61.58
39301;BME280;25019;42.626;23.380;2023-05-03T05:08:25;94849.66;;;9.90;63.08
39301;BME280;25019;42.626;23.380;2023-05-03T05:10:54;94760.25;;;9.38;63.11
39301;BME280;25019;42.626;23.380;2023-05-03T05:13:24;94825.56;;;9.80;62.08
39301;BME280;25019;42.626;23.380;2023-05-03T05:15:50;94842.75;;;9.89;61.46
39301;BME280;25019;42.626;23.380;2023-05-03T05:18:16;94841.22;;;9.94;61.53
39301;BME280;25019;42.626;23.380;2023-05-03T05:20:43;94849.41;;;10.04;62.06
39301;BME280;25019;42.626;23.380;2023-05-03T05:23:09;94819.81;;;9.83;61.71
39301;BME280;25019;42.626;23.380;2023-05-03T05:25:38;94850.69;;;10.01;62.77
39301;BME280;25019;42.626;23.380;2023-05-03T05:28:04;94860.81;;;10.16;62.36
39301;BME280;25019;42.626;23.380;2023-05-03T05:30:29;94801.00;;;9.85;61.80
39301;BME280;25019;42.626;23.380;2023-05-03T05:32:56;94742.13;;;9.47;61.79
39301;BME280;25019;42.626;23.380;2023-05-03T05:35:21;94795.09;;;9.95;61.35
39301;BME280;25019;42.626;23.380;2023-05-03T05:37:47;94846.69;;;10.40;61.16
39301;BME280;25019;42.626;23.380;2023-05-03T05:40:14;94860.03;;;10.57;61.04
39301;BME280;25019;42.626;23.380;2023-05-03T05:42:45;94823.63;;;10.40;59.87
39301;BME280;25019;42.626;23.380;2023-05-03T05:45:13;94848.69;;;10.61;60.18
39301;BME280;25019;42.626;23.380;2023-05-03T05:47:40;94863.31;;;10.76;59.48
39301;BME280;25019;42.626;23.380;2023-05-03T05:50:06;94848.56;;;10.68;60.17
39301;BME280;25019;42.626;23.380;2023-05-03T05:52:33;94857.47;;;10.62;59.21
39301;BME280;25019;42.626;23.380;2023-05-03T05:54:59;94821.63;;;10.35;59.84
39301;BME280;25019;42.626;23.380;2023-05-03T05:57:26;94832.00;;;10.49;59.05
39301;BME280;25019;42.626;23.380;2023-05-03T05:59:52;94856.88;;;10.72;58.42
39301;BME280;25019;42.626;23.380;2023-05-03T06:02:18;94852.03;;;10.69;58.74
39301;BME280;25019;42.626;23.380;2023-05-03T06:04:48;94795.88;;;10.48;58.05
39301;BME280;25019;42.626;23.380;2023-05-03T06:07:14;94830.50;;;10.82;58.06
39301;BME280;25019;42.626;23.380;2023-05-03T06:09:41;94767.63;;;10.42;58.27
39301;BME280;25019;42.626;23.380;2023-05-03T06:12:07;94840.72;;;10.90;57.67
39301;BME280;25019;42.626;23.380;2023-05-03T06:14:36;94840.34;;;10.99;56.97
39301;BME280;25019;42.626;23.380;2023-05-03T06:17:02;94782.44;;;10.55;56.87
39301;BME280;25019;42.626;23.380;2023-05-03T06:19:28;94739.78;;;10.32;57.20
39301;BME280;25019;42.626;23.380;2023-05-03T06:21:56;94787.72;;;10.84;56.97
39301;BME280;25019;42.626;23.380;2023-05-03T06:24:23;94777.13;;;11.01;56.80
39301;BME280;25019;42.626;23.380;2023-05-03T06:26:51;94810.47;;;11.26;57.17
39301;BME280;25019;42.626;23.380;2023-05-03T06:29:17;94812.38;;;11.30;57.52
39301;BME280;25019;42.626;23.380;2023-05-03T06:31:43;94835.34;;;11.53;57.97
39301;BME280;25019;42.626;23.380;2023-05-03T06:34:11;94846.38;;;11.62;58.53
39301;BME280;25019;42.626;23.380;2023-05-03T06:36:39;94818.72;;;11.63;57.97
39301;BME280;25019;42.626;23.380;2023-05-03T06:39:04;94838.16;;;11.81;58.18
39301;BME280;25019;42.626;23.380;2023-05-03T06:41:31;94771.41;;;11.26;57.51
39301;BME280;25019;42.626;23.380;2023-05-03T06:44:00;94764.47;;;11.25;57.24
39301;BME280;25019;42.626;23.380;2023-05-03T06:46:29;94798.41;;;11.57;56.99
39301;BME280;25019;42.626;23.380;2023-05-03T06:48:58;94765.72;;;11.39;57.09
39301;BME280;25019;42.626;23.380;2023-05-03T06:51:25;94816.41;;;11.89;56.68
39301;BME280;25019;42.626;23.380;2023-05-03T06:53:57;94818.31;;;11.72;57.20
39301;BME280;25019;42.626;23.380;2023-05-03T06:56:25;94821.28;;;11.75;57.90
39301;BME280;25019;42.626;23.380;2023-05-03T06:58:52;94714.09;;;11.18;57.49
39301;BME280;25019;42.626;23.380;2023-05-03T07:01:17;94749.59;;;11.46;57.19
39301;BME280;25019;42.626;23.380;2023-05-03T07:03:45;94679.50;;;11.13;56.78
39301;BME280;25019;42.626;23.380;2023-05-03T07:06:11;94803.34;;;12.05;57.09
39301;BME280;25019;42.626;23.380;2023-05-03T07:08:37;94797.47;;;11.86;56.67
39301;BME280;25019;42.626;23.380;2023-05-03T07:11:02;94788.69;;;11.85;56.58
39301;BME280;25019;42.626;23.380;2023-05-03T07:13:29;94805.06;;;12.16;56.55
39301;BME280;25019;42.626;23.380;2023-05-03T07:15:55;94814.63;;;12.12;56.87
39301;BME280;25019;42.626;23.380;2023-05-03T07:18:21;94806.44;;;12.19;56.26
39301;BME280;25019;42.626;23.380;2023-05-03T07:20:46;94809.28;;;12.34;56.85
39301;BME280;25019;42.626;23.380;2023-05-03T07:23:13;94745.31;;;11.84;56.89
39301;BME280;25019;42.626;23.380;2023-05-03T07:25:41;94805.44;;;12.03;57.72
39301;BME280;25019;42.626;23.380;2023-05-03T07:28:07;94743.63;;;11.56;58.21
39301;BME280;25019;42.626;23.380;2023-05-03T07:30:32;94808.31;;;11.79;58.92
39301;BME280;25019;42.626;23.380;2023-05-03T07:32:58;94791.06;;;11.64;59.73
39301;BME280;25019;42.626;23.380;2023-05-03T07:35:23;94774.72;;;11.56;59.91
39301;BME280;25019;42.626;23.380;2023-05-03T07:37:51;94790.44;;;11.57;59.81
39301;BME280;25019;42.626;23.380;2023-05-03T07:40:16;94799.44;;;11.73;60.15
39301;BME280;25019;42.626;23.380;2023-05-03T07:42:42;94800.38;;;11.62;60.33
39301;BME280;25019;42.626;23.380;2023-05-03T07:45:08;94799.22;;;11.75;60.22
39301;BME280;25019;42.626;23.380;2023-05-03T07:47:37;94684.16;;;11.23;60.19
39301;BME280;25019;42.626;23.380;2023-05-03T07:50:05;94786.88;;;12.08;60.25
39301;BME280;25019;42.626;23.380;2023-05-03T07:52:37;94793.44;;;12.00;60.78
39301;BME280;25019;42.626;23.380;2023-05-03T07:55:04;94801.34;;;12.17;60.50
39301;BME280;25019;42.626;23.380;2023-05-03T07:57:30;94804.34;;;12.21;60.00
39301;BME280;25019;42.626;23.380;2023-05-03T07:59:56;94775.78;;;11.94;60.94
39301;BME280;25019;42.626;23.380;2023-05-03T08:02:21;94741.94;;;11.50;60.99
39301;BME280;25019;42.626;23.380;2023-05-03T08:04:47;94687.25;;;11.37;61.08
39301;BME280;25019;42.626;23.380;2023-05-03T08:07:13;94692.00;;;11.57;61.13
39301;BME280;25019;42.626;23.380;2023-05-03T08:09:40;94784.38;;;12.23;61.12
39301;BME280;25019;42.626;23.380;2023-05-03T08:12:06;94793.78;;;12.31;60.95
39301;BME280;25019;42.626;23.380;2023-05-03T08:14:31;94798.19;;;12.70;59.98
39301;BME280;25019;42.626;23.380;2023-05-03T08:16:59;94796.31;;;12.98;60.03
39301;BME280;25019;42.626;23.380;2023-05-03T08:19:25;94717.28;;;12.49;59.16
39301;BME280;25019;42.626;23.380;2023-05-03T08:21:51;94727.00;;;12.65;59.88
39301;BME280;25019;42.626;23.380;2023-05-03T08:24:18;94794.09;;;13.17;59.78
39301;BME280;25019;42.626;23.380;2023-05-03T08:26:45;94782.72;;;13.32;59.89
39301;BME280;25019;42.626;23.380;2023-05-03T08:29:15;94791.00;;;13.30;58.47
39301;BME280;25019;42.626;23.380;2023-05-03T08:31:41;94778.06;;;13.17;59.60
39301;BME280;25019;42.626;23.380;2023-05-03T08:34:07;94715.09;;;13.06;58.67
39301;BME280;25019;42.626;23.380;2023-05-03T08:36:35;94732.22;;;13.20;60.24
39301;BME280;25019;42.626;23.380;2023-05-03T08:39:03;94782.66;;;13.22;59.61
39301;BME280;25019;42.626;23.380;2023-05-03T08:41:32;94793.16;;;13.33;60.69
39301;BME280;25019;42.626;23.380;2023-05-03T08:43:59;94791.22;;;13.24;60.28
39301;BME280;25019;42.626;23.380;2023-05-03T08:46:26;94783.94;;;13.46;59.56
39301;BME280;25019;42.626;23.380;2023-05-03T08:48:53;94731.81;;;12.96;60.18
39301;BME280;25019;42.626;23.380;2023-05-03T08:51:21;94786.91;;;13.17;61.62
39301;BME280;25019;42.626;23.380;2023-05-03T08:53:47;94736.00;;;12.86;62.02
39301;BME280;25019;42.626;23.380;2023-05-03T08:56:35;94793.16;;;13.33;60.45
39301;BME280;25019;42.626;23.380;2023-05-03T08:59:04;94797.88;;;13.59;60.09
39301;BME280;25019;42.626;23.380;2023-05-03T09:01:36;94794.81;;;13.77;59.31
39301;BME280;25019;42.626;23.380;2023-05-03T09:04:02;94792.31;;;14.19;58.21
39301;BME280;25019;42.626;23.380;2023-05-03T09:06:28;94797.16;;;14.27;58.15
39301;BME280;25019;42.626;23.380;2023-05-03T09:08:54;94727.66;;;14.06;58.02
39301;BME280;25019;42.626;23.380;2023-05-03T09:11:26;94793.31;;;14.76;56.46
39301;BME280;25019;42.626;23.380;2023-05-03T09:13:53;94777.53;;;14.75;56.68
39301;BME280;25019;42.626;23.380;2023-05-03T09:16:26;94766.56;;;14.81;56.92
39301;BME280;25019;42.626;23.380;2023-05-03T09:18:56;94783.44;;;14.92;56.48
39301;BME280;25019;42.626;23.380;2023-05-03T09:21:22;94762.84;;;15.24;56.60
39301;BME280;25019;42.626;23.380;2023-05-03T09:23:48;94719.53;;;15.17;55.62
39301;BME280;25019;42.626;23.380;2023-05-03T09:26:32;94776.75;;;15.41;55.56
39301;BME280;25019;42.626;23.380;2023-05-03T09:29:00;94717.38;;;15.19;54.73
39301;BME280;25019;42.626;23.380;2023-05-03T09:31:27;94760.34;;;15.90;54.37
39301;BME280;25019;42.626;23.380;2023-05-03T09:33:54;94656.75;;;15.75;53.11
39301;BME280;25019;42.626;23.380;2023-05-03T09:36:20;94747.69;;;16.61;51.77
39301;BME280;25019;42.626;23.380;2023-05-03T09:38:46;94747.50;;;16.87;50.84
39301;BME280;25019;42.626;23.380;2023-05-03T09:41:12;94739.63;;;17.06;50.65
39301;BME280;25019;42.626;23.380;2023-05-03T09:43:48;94743.72;;;16.93;51.83
39301;BME280;25019;42.626;23.380;2023-05-03T09:46:15;94745.47;;;16.73;51.88
39301;BME280;25019;42.626;23.380;2023-05-03T09:48:40;94735.66;;;16.98;51.29
39301;BME280;25019;42.626;23.380;2023-05-03T09:51:07;94668.44;;;16.50;52.50
39301;BME280;25019;42.626;23.380;2023-05-03T09:53:35;94729.91;;;17.15;52.02
39301;BME280;25019;42.626;23.380;2023-05-03T09:56:02;94729.22;;;17.29;51.15
39301;BME280;25019;42.626;23.380;2023-05-03T09:58:28;94730.28;;;17.33;50.29
39301;BME280;25019;42.626;23.380;2023-05-03T10:00:55;94678.28;;;16.89;51.04
39301;BME280;25019;42.626;23.380;2023-05-03T10:03:27;94688.94;;;16.30;52.18
39301;BME280;25019;42.626;23.380;2023-05-03T10:05:57;94713.59;;;16.27;52.96
39301;BME280;25019;42.626;23.380;2023-05-03T10:08:35;94725.19;;;16.12;53.22
39301;BME280;25019;42.626;23.380;2023-05-03T10:11:07;94745.66;;;16.42;52.86
39301;BME280;25019;42.626;23.380;2023-05-03T10:13:34;94673.34;;;16.32;53.16
39301;BME280;25019;42.626;23.380;2023-05-03T10:16:09;94685.66;;;16.33;53.44
39301;BME280;25019;42.626;23.380;2023-05-03T10:18:48;94705.78;;;16.36;53.95
39301;BME280;25019;42.626;23.380;2023-05-03T10:21:28;94696.59;;;15.97;54.96
39301;BME280;25019;42.626;23.380;2023-05-03T10:24:11;94650.88;;;15.67;55.18
39301;BME280;25019;42.626;23.380;2023-05-03T10:26:39;94694.88;;;16.16;54.96
39301;BME280;25019;42.626;23.380;2023-05-03T10:29:08;94696.34;;;16.38;54.39
39301;BME280;25019;42.626;23.380;2023-05-03T10:31:51;94675.13;;;16.47;52.87
39301;BME280;25019;42.626;23.380;2023-05-03T10:34:22;94634.38;;;16.45;52.79
39301;BME280;25019;42.626;23.380;2023-05-03T10:36:49;94676.53;;;17.14;52.32
39301;BME280;25019;42.626;23.380;2023-05-03T10:39:17;94687.13;;;17.54;52.00
39301;BME280;25019;42.626;23.380;2023-05-03T10:41:44;94676.50;;;17.67;51.77
39301;BME280;25019;42.626;23.380;2023-05-03T10:47:20;94686.00;;;18.66;48.57
39301;BME280;25019;42.626;23.380;2023-05-03T10:55:09;94659.03;;;18.33;47.51
39301;BME280;25019;42.626;23.380;2023-05-03T10:57:38;94679.00;;;18.65;46.83
39301;BME280;25019;42.626;23.380;2023-05-03T11:00:11;94698.69;;;18.98;46.53
39301;BME280;25019;42.626;23.380;2023-05-03T11:02:41;94639.28;;;18.76;46.59
39301;BME280;25019;42.626;23.380;2023-05-03T11:05:11;94600.06;;;18.89;45.82
39301;BME280;25019;42.626;23.380;2023-05-03T11:07:37;94637.16;;;19.25;45.32
39301;BME280;25019;42.626;23.380;2023-05-03T11:10:18;94665.41;;;19.69;45.18
39301;BME280;25019;42.626;23.380;2023-05-03T11:12:44;94643.16;;;19.64;44.79
39301;BME280;25019;42.626;23.380;2023-05-03T11:15:10;94681.56;;;19.83;44.91
39301;BME280;25019;42.626;23.380;2023-05-03T11:17:37;94684.47;;;19.73;45.24
39301;BME280;25019;42.626;23.380;2023-05-03T11:20:06;94683.47;;;19.69;45.32
39301;BME280;25019;42.626;23.380;2023-05-03T11:22:34;94680.88;;;19.64;45.86
39301;BME280;25019;42.626;23.380;2023-05-03T11:25:00;94621.91;;;19.48;45.81
39301;BME280;25019;42.626;23.380;2023-05-03T11:27:25;94666.00;;;19.80;45.68
39301;BME280;25019;42.626;23.380;2023-05-03T11:29:52;94612.84;;;19.58;45.81
39301;BME280;25019;42.626;23.380;2023-05-03T11:32:25;94618.81;;;19.97;45.48
39301;BME280;25019;42.626;23.380;2023-05-03T11:34:51;94660.50;;;20.50;45.01
39301;BME280;25019;42.626;23.380;2023-05-03T11:37:17;94662.09;;;20.14;45.45
39301;BME280;25019;42.626;23.380;2023-05-03T11:39:45;94664.63;;;20.47;45.92
39301;BME280;25019;42.626;23.380;2023-05-03T11:42:12;94468.53;;;19.29;45.21
39301;BME280;25019;42.626;23.380;2023-05-03T11:44:38;94667.38;;;20.56;45.29
39301;BME280;25019;42.626;23.380;2023-05-03T11:47:04;94486.78;;;19.32;45.84
39301;BME280;25019;42.626;23.380;2023-05-03T11:49:30;94393.88;;;19.07;44.72
39301;BME280;25019;42.626;23.380;2023-05-03T11:51:56;94449.38;;;19.30;44.14
39301;BME280;25019;42.626;23.380;2023-05-03T11:57:37;94549.19;;;20.35;44.77
39301;BME280;25019;42.626;23.380;2023-05-03T12:00:13;94544.81;;;20.48;44.13
39301;BME280;25019;42.626;23.380;2023-05-03T12:02:47;94564.19;;;20.50;44.06
39301;BME280;25019;42.626;23.380;2023-05-03T12:05:13;94622.81;;;20.59;44.59
39301;BME280;25019;42.626;23.380;2023-05-03T12:07:39;94575.09;;;19.72;45.49
39301;BME280;25019;42.626;23.380;2023-05-03T12:10:31;94635.66;;;19.46;46.85
39301;BME280;25019;42.626;23.380;2023-05-03T12:12:58;94635.75;;;19.41;47.15
39301;BME280;25019;42.626;23.380;2023-05-03T12:15:27;94648.63;;;19.44;47.38
39301;BME280;25019;42.626;23.380;2023-05-03T12:17:57;94584.19;;;18.73;47.39
39301;BME280;25019;42.626;23.380;2023-05-03T12:20:24;94639.09;;;18.72;48.13
39301;BME280;25019;42.626;23.380;2023-05-03T12:22:52;94636.69;;;18.37;49.54
39301;BME280;25019;42.626;23.380;2023-05-03T12:25:24;94583.97;;;17.79;50.47
39301;BME280;25019;42.626;23.380;2023-05-03T12:27:55;94640.06;;;17.61;51.42
39301;BME280;25019;42.626;23.380;2023-05-03T12:30:22;94591.06;;;16.67;52.27
39301;BME280;25019;42.626;23.380;2023-05-03T12:32:48;94649.41;;;16.81;53.88
39301;BME280;25019;42.626;23.380;2023-05-03T12:35:14;94601.06;;;16.22;55.40
39301;BME280;25019;42.626;23.380;2023-05-03T12:37:40;94645.72;;;16.37;55.54
39301;BME280;25019;42.626;23.380;2023-05-03T12:40:09;94650.41;;;16.15;56.51
39301;BME280;25019;42.626;23.380;2023-05-03T12:42:35;94651.88;;;15.92;57.08
39301;BME280;25019;42.626;23.380;2023-05-03T12:45:01;94607.50;;;15.65;57.50
39301;BME280;25019;42.626;23.380;2023-05-03T12:47:27;94659.88;;;15.97;58.07
39301;BME280;25019;42.626;23.380;2023-05-03T12:49:53;94602.69;;;15.67;57.63
39301;BME280;25019;42.626;23.380;2023-05-03T12:52:20;94642.72;;;16.03;57.89
39301;BME280;25019;42.626;23.380;2023-05-03T12:54:47;94594.41;;;15.64;59.00
39301;BME280;25019;42.626;23.380;2023-05-03T12:57:13;94583.22;;;15.51;62.39
39301;BME280;25019;42.626;23.380;2023-05-03T12:59:40;94642.50;;;15.90;63.57
39301;BME280;25019;42.626;23.380;2023-05-03T13:02:10;94634.19;;;15.91;63.17
39301;BME280;25019;42.626;23.380;2023-05-03T13:04:36;94640.38;;;15.86;63.37
39301;BME280;25019;42.626;23.380;2023-05-03T13:07:05;94588.41;;;15.32;65.48
39301;BME280;25019;42.626;23.380;2023-05-03T13:09:32;94652.78;;;15.67;66.49